Time;durP1;ratioP1;P1;durP2;ratioP2;P2;SDS_P1;SDS_P2;PMS_P1;PMS_P2;Temp;Humidity;BMP_temperature;BMP_pressure;BME280_temperature;BME280_humidity;BME280_pressure;Samples;Min_cycle;Max_cycle;Signal;HPM_P1;HPM_P2
2022/06/28 00:05:36;;;;;;;16.98;2.55;;;17.00;96.80;;;;;;20885743;28;20507;-58
2022/06/28 00:26:00;;;;;;;19.75;3.22;;;16.90;97.10;;;;;;20898178;28;20037;-57
2022/06/28 00:36:03;;;;;;;15.30;2.35;;;16.90;97.50;;;;;;20881069;28;20439;-50
2022/06/28 00:46:08;;;;;;;16.83;2.95;;;17.10;97.50;;;;;;20896912;28;20028;-59
2022/06/28 00:56:10;;;;;;;15.30;2.90;;;16.90;97.90;;;;;;20896194;28;20041;-57
2022/06/28 01:06:13;;;;;;;14.10;2.70;;;16.80;98.60;;;;;;20895020;28;20045;-58
2022/06/28 01:16:18;;;;;;;16.77;3.28;;;16.80;99.00;;;;;;20906695;28;20045;-57
2022/06/28 01:26:25;;;;;;;13.77;3.38;;;16.50;99.90;;;;;;20976559;28;20067;-49
2022/06/28 01:36:27;;;;;;;10.45;3.00;;;16.40;99.90;;;;;;20975491;28;20403;-52
2022/06/28 01:46:32;;;;;;;16.52;3.47;;;16.40;99.90;;;;;;20974600;28;20032;-57
2022/06/28 01:56:42;;;;;;;16.20;2.93;;;16.50;99.90;;;;;;20923712;28;20114;-56
2022/06/28 02:06:49;;;;;;;;;;;16.60;99.90;;;;;;20890880;28;20063;-57
2022/06/28 02:16:53;;;;;;;18.45;3.15;;;16.50;99.90;;;;;;20873120;28;20279;-57
2022/06/28 02:26:56;;;;;;;10.57;3.13;;;16.50;99.90;;;;;;20888863;28;20400;-57
2022/06/28 02:47:20;;;;;;;20.50;2.83;;;16.20;99.90;;;;;;20953206;28;20032;-57
2022/06/28 02:57:22;;;;;;;22.65;4.15;;;16.00;99.90;;;;;;20968946;28;20442;-57
2022/06/28 03:07:25;;;;;;;17.80;2.35;;;16.00;99.90;;;;;;20951755;28;20091;-57
2022/06/28 03:17:27;;;;;;;12.93;2.72;;;16.20;99.90;;;;;;20951348;28;20409;-48
2022/06/28 03:27:30;;;;;;;12.60;2.53;;;16.00;99.80;;;;;;20951030;28;20094;-49
2022/06/28 03:37:35;;;;;;;10.48;2.67;;;15.90;99.90;;;;;;20968537;28;20090;-56
2022/06/28 03:47:40;;;;;;;11.80;2.38;;;15.80;99.90;;;;;;20991140;28;20033;-56
2022/06/28 03:58:14;;;;;;;17.17;3.00;;;15.70;99.90;;;;;;20946970;28;20033;-50
2022/06/28 04:08:17;;;;;;;15.85;3.08;;;15.60;99.90;;;;;;20894156;28;20068;-48
2022/06/28 04:18:28;;;;;;;14.60;2.63;;;15.80;99.90;;;;;;20957658;28;20423;-57
2022/06/28 04:28:51;;;;;;;16.60;3.42;;;15.90;99.90;;;;;;20976058;28;20036;-49
2022/06/28 04:38:58;;;;;;;21.60;3.15;;;16.00;99.90;;;;;;20991879;28;20028;-49
2022/06/28 04:49:08;;;;;;;17.88;3.10;;;16.20;99.90;;;;;;20992089;28;20139;-57
2022/06/28 04:59:18;;;;;;;12.55;2.92;;;16.50;99.90;;;;;;20956536;28;20387;-58
2022/06/28 05:09:21;;;;;;;16.75;2.22;;;16.80;99.90;;;;;;20977695;28;20041;-55
2022/06/28 05:19:27;;;;;;;13.40;2.72;;;17.10;99.90;;;;;;20976683;28;20056;-58
2022/06/28 05:29:31;;;;;;;15.40;2.58;;;17.40;99.90;;;;;;20976392;28;20044;-57
2022/06/28 05:39:34;;;;;;;16.15;2.75;;;17.80;99.90;;;;;;20975628;28;20032;-50
2022/06/28 05:49:38;;;;;;;22.27;3.03;;;18.60;98.80;;;;;;20974755;28;20032;-58
2022/06/28 05:59:41;;;;;;;14.25;2.90;;;19.40;96.80;;;;;;20960152;28;20036;-59
2022/06/28 06:09:44;;;;;;;18.75;3.45;;;20.10;95.70;;;;;;20972371;28;20086;-59
2022/06/28 06:19:47;;;;;;;17.88;2.92;;;20.90;94.10;;;;;;20955421;28;20054;-59
2022/06/28 06:29:50;;;;;;;17.15;2.92;;;21.30;97.00;;;;;;20971268;28;20036;-59
2022/06/28 06:40:09;;;;;;;15.85;3.92;;;22.70;94.40;;;;;;20970324;28;20032;-59
2022/06/28 06:50:12;;;;;;;21.10;3.00;;;22.70;94.70;;;;;;20953168;28;20045;-60
2022/06/28 07:00:16;;;;;;;19.65;3.95;;;24.60;89.60;;;;;;20904918;28;20040;-60
2022/06/28 07:10:20;;;;;;;14.35;3.05;;;26.50;84.50;;;;;;20886368;28;20372;-60
2022/06/28 07:20:24;;;;;;;16.35;3.05;;;26.20;80.60;;;;;;20948260;28;20568;-60
2022/06/28 07:30:26;;;;;;;20.30;3.53;;;25.00;85.40;;;;;;20950790;28;20045;-59
2022/06/28 07:40:30;;;;;;;17.70;3.08;;;24.50;83.50;;;;;;20985005;28;20044;-59
2022/06/28 08:01:12;;;;;;;14.75;3.22;;;23.70;89.40;;;;;;20966266;28;20032;-55
2022/06/28 08:11:15;;;;;;;11.27;3.17;;;23.70;90.60;;;;;;20965582;28;20067;-60
2022/06/28 08:21:18;;;;;;;16.25;3.00;;;23.70;91.20;;;;;;20948905;28;20052;-60
2022/06/28 08:31:21;;;;;;;9.00;2.38;;;24.60;91.00;;;;;;20974375;28;20036;-59
2022/06/28 08:41:28;;;;;;;12.50;2.65;;;24.70;86.80;;;;;;20980100;28;20395;-59
2022/06/28 08:51:32;;;;;;;;;;;24.50;90.80;;;;;;20979354;28;20036;-60
2022/06/28 09:01:34;;;;;;;16.55;3.15;;;25.50;90.40;;;;;;20978695;28;19916;-62
2022/06/28 09:11:39;;;;;;;15.63;2.80;;;26.50;88.00;;;;;;20976500;28;20036;-60
2022/06/28 09:21:43;;;;;;;20.08;3.13;;;26.80;88.20;;;;;;20976215;28;20052;-60
2022/06/28 09:31:46;;;;;;;12.93;3.50;;;27.30;90.20;;;;;;20976310;28;20040;-61
2022/06/28 09:41:52;;;;;;;16.52;3.40;;;27.60;89.80;;;;;;20974748;28;20272;-61
2022/06/28 09:51:58;;;;;;;18.30;3.47;;;28.30;86.60;;;;;;20958084;28;20056;-61
2022/06/28 10:02:02;;;;;;;19.53;3.53;;;28.60;81.60;;;;;;20961070;28;20513;-61
2022/06/28 10:22:27;;;;;;;15.18;3.10;;;29.90;75.40;;;;;;20972182;28;20049;-60
2022/06/28 10:32:40;;;;;;;18.50;3.60;;;29.70;79.90;;;;;;20970770;28;20036;-61
2022/06/28 10:42:51;;;;;;;14.05;2.55;;;29.70;81.30;;;;;;20970293;28;20463;-61
2022/06/28 10:53:02;;;;;;;10.82;2.70;;;29.90;77.70;;;;;;20965324;28;20421;-57
2022/06/28 11:03:05;;;;;;;16.42;3.58;;;29.20;78.20;;;;;;20886435;28;20041;-61
2022/06/28 11:13:23;;;;;;;26.52;3.85;;;28.30;80.70;;;;;;20889238;28;20106;-60
2022/06/28 11:23:29;;;;;;;14.57;3.20;;;28.50;77.30;;;;;;20968156;28;20040;-60
2022/06/28 11:33:32;;;;;;;19.92;3.15;;;28.80;74.00;;;;;;20967537;28;20101;-60
2022/06/28 11:43:35;;;;;;;15.10;2.67;;;28.70;81.50;;;;;;20966592;28;20454;-60
2022/06/28 11:53:45;;;;;;;12.73;3.25;;;28.40;81.30;;;;;;20956922;28;20091;-60
2022/06/28 12:03:48;;;;;;;13.27;3.55;;;27.10;85.40;;;;;;20889629;28;20510;-60
2022/06/28 12:13:59;;;;;;;21.13;4.18;;;25.70;91.40;;;;;;20912772;28;20037;-59
2022/06/28 12:24:02;;;;;;;21.35;4.63;;;24.20;94.20;;;;;;20898887;28;20036;-50
2022/06/28 12:34:06;;;;;;;26.83;9.00;;;23.10;97.00;;;;;;20898146;28;20550;-47
2022/06/28 12:44:09;;;;;;;15.02;7.00;;;21.20;99.90;;;;;;20888892;28;20479;-49
2022/06/28 12:54:11;;;;;;;15.93;7.45;;;18.40;99.90;;;;;;20890745;28;20041;-54
2022/06/28 13:04:16;;;;;;;20.20;10.65;;;17.90;99.90;;;;;;20879613;28;20032;-49
2022/06/28 13:14:19;;;;;;;29.08;12.90;;;18.20;99.90;;;;;;20907455;28;20044;-49
2022/06/28 13:24:21;;;;;;;15.27;6.30;;;19.70;99.90;;;;;;20960401;28;20037;-58
2022/06/28 13:34:23;;;;;;;19.05;6.75;;;20.80;99.90;;;;;;20976403;28;20102;-57
2022/06/28 13:44:27;;;;;;;14.07;6.03;;;20.60;99.90;;;;;;20975252;28;20090;-58
2022/06/28 13:54:31;;;;;;;17.35;5.78;;;20.00;99.90;;;;;;20938151;28;20029;-58
2022/06/28 14:04:35;;;;;;;25.85;5.28;;;19.70;99.90;;;;;;20816515;28;20046;-59
2022/06/28 14:14:37;;;;;;;10.43;3.97;;;20.70;99.90;;;;;;20799269;28;20049;-59
2022/06/28 14:24:40;;;;;;;14.73;4.55;;;20.50;99.90;;;;;;20798310;28;20045;-57
2022/06/28 14:34:43;;;;;;;16.75;4.18;;;19.70;99.90;;;;;;20823721;28;20106;-58
2022/06/28 14:44:46;;;;;;;12.20;4.05;;;19.10;99.90;;;;;;20970547;28;20569;-58
2022/06/28 14:54:49;;;;;;;10.75;4.72;;;18.20;99.90;;;;;;20964406;28;20086;-52
2022/06/28 15:04:53;;;;;;;12.85;4.32;;;17.90;99.90;;;;;;20968947;28;20410;-58
2022/06/28 15:14:55;;;;;;;13.82;5.28;;;17.80;99.90;;;;;;20960319;28;20125;-58
2022/06/28 15:35:19;;;;;;;11.10;3.55;;;18.50;99.90;;;;;;20966590;28;20482;-59
2022/06/28 15:45:22;;;;;;;13.30;2.75;;;20.50;99.90;;;;;;20963000;28;20483;-60
2022/06/28 15:55:24;;;;;;;18.83;3.83;;;21.60;99.90;;;;;;20966481;28;20044;-59
2022/06/28 16:05:29;;;;;;;16.27;3.67;;;21.90;99.90;;;;;;20966208;28;20044;-59
2022/06/28 16:15:37;;;;;;;10.35;2.75;;;21.60;99.90;;;;;;20989500;28;20036;-59
2022/06/28 16:25:39;;;;;;;9.73;2.63;;;21.80;99.90;;;;;;21032307;28;20040;-59
2022/06/28 16:35:42;;;;;;;17.75;3.78;;;21.70;99.90;;;;;;21048739;28;20085;-54
2022/06/28 16:45:45;;;;;;;20.48;4.55;;;21.60;99.90;;;;;;20807773;28;20077;-58
2022/06/28 16:55:48;;;;;;;15.20;3.50;;;21.30;99.90;;;;;;20821798;28;20455;-58
2022/06/28 17:05:51;;;;;;;11.50;3.25;;;20.60;99.90;;;;;;20804660;28;20412;-59
2022/06/28 17:15:54;;;;;;;16.50;3.67;;;20.40;99.90;;;;;;20820640;28;20526;-49
2022/06/28 17:25:56;;;;;;;13.45;3.20;;;20.00;99.90;;;;;;20893275;28;20102;-58
2022/06/28 17:35:59;;;;;;;13.73;4.05;;;19.70;99.90;;;;;;20993032;28;20086;-57
2022/06/28 17:46:01;;;;;;;12.27;2.75;;;19.60;99.90;;;;;;20992003;28;20036;-58
2022/06/28 17:56:04;;;;;;;17.58;2.83;;;19.40;99.90;;;;;;20991409;28;20041;-58
2022/06/28 18:06:08;;;;;;;12.18;2.85;;;19.30;99.90;;;;;;20973091;28;20036;-58
2022/06/28 18:16:12;;;;;;;10.90;2.90;;;19.40;99.90;;;;;;20972792;28;20040;-58
2022/06/28 18:26:14;;;;;;;16.83;4.22;;;19.40;99.90;;;;;;20955457;28;20094;-58
2022/06/28 18:36:17;;;;;;;17.42;3.45;;;19.30;99.90;;;;;;20971180;28;20491;-58
2022/06/28 18:46:20;;;;;;;9.45;2.63;;;19.00;99.90;;;;;;20970250;28;20059;-58
2022/06/28 18:56:23;;;;;;;6.97;2.65;;;18.60;99.90;;;;;;21002297;28;20172;-57
2022/06/28 19:06:27;;;;;;;10.43;2.55;;;18.30;99.90;;;;;;21053192;28;20093;-58
2022/06/28 19:16:29;;;;;;;10.05;3.80;;;17.90;99.90;;;;;;21051329;28;20406;-53
2022/06/28 19:26:32;;;;;;;9.05;3.25;;;17.80;99.90;;;;;;21051681;28;20044;-56
2022/06/28 19:36:34;;;;;;;12.32;3.10;;;16.70;99.90;;;;;;21051300;28;20105;-50
2022/06/28 19:46:37;;;;;;;12.63;3.95;;;16.40;99.90;;;;;;21050436;28;20432;-50
2022/06/28 19:56:39;;;;;;;14.80;3.45;;;15.70;99.90;;;;;;21015300;28;20041;-49
2022/06/28 20:06:43;;;;;;;13.70;4.28;;;15.20;99.90;;;;;;20966083;28;20093;-49
2022/06/28 20:16:46;;;;;;;10.63;4.15;;;15.00;99.90;;;;;;20965320;28;20040;-51
2022/06/28 20:26:49;;;;;;;17.35;4.43;;;15.10;99.90;;;;;;20974317;28;20032;-51
2022/06/28 20:36:51;;;;;;;21.70;4.43;;;15.20;99.90;;;;;;20981005;28;20036;-49
2022/06/28 20:46:54;;;;;;;17.55;4.50;;;15.40;99.90;;;;;;20980010;28;20040;-46
2022/06/28 20:56:56;;;;;;;10.35;4.25;;;15.30;99.90;;;;;;21017818;28;20054;-45
2022/06/28 21:07:00;;;;;;;11.13;3.92;;;15.40;99.90;;;;;;21062213;28;20032;-45
2022/06/28 21:17:03;;;;;;;11.25;4.07;;;15.40;99.90;;;;;;21061246;28;20048;-54
2022/06/28 21:27:06;;;;;;;11.68;4.75;;;15.20;99.90;;;;;;21060639;28;20105;-50
2022/06/28 21:37:08;;;;;;;9.02;3.88;;;15.00;99.90;;;;;;21058825;28;20066;-54
2022/06/28 21:47:11;;;;;;;13.70;3.90;;;14.90;99.90;;;;;;21058908;28;20040;-53
2022/06/28 21:57:13;;;;;;;9.95;3.13;;;14.80;99.90;;;;;;21018205;28;20093;-50
2022/06/28 22:07:17;;;;;;;15.18;3.47;;;14.80;99.90;;;;;;20973590;28;20074;-54
2022/06/28 22:17:20;;;;;;;13.13;3.20;;;14.80;99.90;;;;;;20972861;28;20033;-52
2022/06/28 22:27:22;;;;;;;15.80;3.83;;;14.90;99.90;;;;;;20972174;28;20036;-52
2022/06/28 22:37:25;;;;;;;16.40;3.50;;;14.70;99.90;;;;;;20971159;28;20098;-53
2022/06/28 22:47:30;;;;;;;9.10;3.35;;;14.50;99.90;;;;;;20970233;28;20086;-49
2022/06/28 22:57:32;;;;;;;9.63;3.38;;;14.30;99.90;;;;;;21011758;28;20069;-53
2022/06/28 23:07:35;;;;;;;8.85;3.03;;;14.20;99.90;;;;;;21052315;28;20070;-45
2022/06/28 23:17:38;;;;;;;10.30;3.00;;;14.20;99.90;;;;;;21051885;28;20043;-48
2022/06/28 23:27:40;;;;;;;15.70;3.88;;;14.10;99.90;;;;;;21051427;28;20400;-53
2022/06/28 23:37:43;;;;;;;10.90;2.92;;;14.10;99.90;;;;;;21051092;28;20028;-51
2022/06/28 23:47:45;;;;;;;8.20;2.55;;;14.10;99.90;;;;;;21050397;28;20024;-55
2022/06/28 23:57:50;;;;;;;7.25;2.17;;;14.10;99.90;;;;;;21008645;28;20029;-54
